Nashville, Tennessee
Traffic Map
Current Weather Conditions
Nashville, Tennessee
Clear
Clear
56°
Feels Like: 56°
Wind Chill: 56° Ceiling: Unl
Heat Index: 56° Visibility: 9mi
Dew Point: 54° Wind: 3mph
Humidity: 93% Direction: 260° (W)
Pressure: 29.78in Gusts: 0mph
Raw Report DataKBNA 250453Z 26003KT 9SM CLR 13/12 A2978 RMK AO2 SLP080 T01330122
Traffic Incident Summary
Active as of:
Severity:
Category:
InformationThere was an issue retrieving the traffic information for this location. Please try a different location or try again shortly.
Advertisements
Track Severe Weather on mobile